Time;durP1;ratioP1;P1;durP2;ratioP2;P2;SDS_P1;SDS_P2;PMS_P1;PMS_P2;Temp;Humidity;BMP_temperature;BMP_pressure;BME280_temperature;BME280_humidity;BME280_pressure;Samples;Min_cycle;Max_cycle;Signal;HPM_P1;HPM_P2
2022/08/17 00:00:59;;;;;;;5.15;4.85;;;;;;;23.82;nan;94746.72;4994644;28;20207;-70
2022/08/17 00:03:29;;;;;;;4.68;4.38;;;;;;;23.85;nan;94750.81;4995376;28;20227;-68
2022/08/17 00:05:58;;;;;;;5.10;4.55;;;;;;;23.76;nan;94751.69;4992908;28;21343;-70
2022/08/17 00:08:30;;;;;;;6.05;5.50;;;;;;;23.80;nan;94753.00;4992919;28;20206;-67
2022/08/17 00:10:58;;;;;;;7.10;6.45;;;;;;;23.72;nan;94751.97;4993062;28;20300;-70
2022/08/17 00:13:29;;;;;;;5.30;4.65;;;;;;;23.40;nan;94753.97;4991679;28;20227;-71
2022/08/17 00:15:58;;;;;;;6.68;6.13;;;;;;;23.22;nan;94747.84;4994213;28;20208;-70
2022/08/17 00:18:26;;;;;;;4.90;4.40;;;;;;;22.83;nan;94746.94;4993060;28;20214;-70
2022/08/17 00:20:53;;;;;;;5.03;4.30;;;;;;;22.72;nan;94747.84;4994630;28;20202;-70
2022/08/17 00:23:21;;;;;;;4.90;4.60;;;;;;;22.61;nan;94753.13;4990618;28;20297;-70
2022/08/17 00:25:49;;;;;;;4.70;4.30;;;;;;;22.55;nan;94751.06;4992330;28;20739;-71
2022/08/17 00:28:17;;;;;;;5.88;5.28;;;;;;;22.23;nan;94748.63;4991124;28;20713;-70
2022/08/17 00:30:45;;;;;;;5.82;4.35;;;;;;;22.02;nan;94751.25;4989773;28;20289;-70
2022/08/17 00:33:15;;;;;;;8.07;5.72;;;;;;;21.21;nan;94751.88;4995097;28;22288;-69
2022/08/17 00:35:43;;;;;;;7.00;5.10;;;;;;;21.29;nan;94747.72;4987168;28;20222;-70
2022/08/17 00:38:11;;;;;;;6.90;5.22;;;;;;;21.12;nan;94744.81;4991737;28;20200;-69
2022/08/17 00:40:38;;;;;;;5.90;5.47;;;;;;;21.02;nan;94761.06;4991017;28;20389;-70
2022/08/17 00:43:15;;;;;;;6.32;5.47;;;;;;;21.26;nan;94747.16;4990518;28;20254;-70
2022/08/17 00:45:42;;;;;;;6.97;4.88;;;;;;;21.37;nan;94745.34;4989280;28;20203;-69
2022/08/17 00:48:09;;;;;;;8.80;5.43;;;;;;;21.76;nan;94744.81;4990200;28;20214;-69
2022/08/17 00:50:38;;;;;;;5.57;5.03;;;;;;;21.97;nan;94745.59;4989617;28;20211;-70
2022/08/17 00:53:05;;;;;;;5.55;4.80;;;;;;;21.87;nan;94727.44;4988492;28;20195;-69
2022/08/17 00:55:33;;;;;;;5.45;5.05;;;;;;;21.50;nan;94734.84;4988135;28;20266;-70
2022/08/17 00:58:04;;;;;;;6.72;5.28;;;;;;;21.40;nan;94736.50;4987889;28;20212;-69
2022/08/17 01:00:37;;;;;;;5.35;4.85;;;;;;;21.62;nan;94738.97;4990494;28;20211;-69
2022/08/17 01:03:08;;;;;;;6.07;5.53;;;;;;;21.82;nan;94750.28;4989257;28;20993;-70
2022/08/17 01:05:37;;;;;;;5.40;5.00;;;;;;;21.90;nan;94747.06;4991364;28;20231;-68
2022/08/17 01:08:07;;;;;;;6.75;5.03;;;;;;;21.91;nan;94753.88;4989946;28;20211;-70
2022/08/17 01:10:45;;;;;;;5.43;5.03;;;;;;;21.99;nan;94751.47;4990234;28;20663;-71
2022/08/17 01:13:13;;;;;;;4.90;4.60;;;;;;;21.89;nan;94755.75;4991202;28;20210;-69
2022/08/17 01:15:45;;;;;;;7.00;5.32;;;;;;;21.60;nan;94751.22;4991972;28;20212;-69
2022/08/17 01:18:13;;;;;;;11.70;5.53;;;;;;;21.78;nan;94754.06;4989966;28;20208;-70
2022/08/17 01:20:47;;;;;;;5.85;4.72;;;;;;;21.75;nan;94756.09;4991850;28;20270;-68
2022/08/17 01:23:16;;;;;;;5.55;5.05;;;;;;;21.78;nan;94758.44;4991207;28;20235;-69
2022/08/17 01:25:43;;;;;;;5.45;4.95;;;;;;;21.85;nan;94750.03;4988838;28;20222;-69
2022/08/17 01:28:10;;;;;;;4.57;4.22;;;;;;;21.80;nan;94746.16;4990802;28;20270;-67
2022/08/17 01:30:37;;;;;;;5.28;4.90;;;;;;;21.58;nan;94745.34;4991004;28;20329;-68
2022/08/17 01:33:04;;;;;;;6.95;5.82;;;;;;;21.48;nan;94741.91;4989239;28;20285;-69
2022/08/17 01:35:31;;;;;;;7.18;5.50;;;;;;;21.54;nan;94745.72;4989884;28;20218;-69
2022/08/17 01:37:58;;;;;;;5.95;5.25;;;;;;;21.67;nan;94736.84;4990713;28;20207;-67
2022/08/17 01:40:33;;;;;;;5.63;5.32;;;;;;;21.79;nan;94744.53;4989614;28;20280;-68
2022/08/17 01:43:03;;;;;;;8.18;5.07;;;;;;;21.83;nan;94745.91;4988880;28;20223;-69
2022/08/17 01:45:36;;;;;;;6.18;5.07;;;;;;;21.82;nan;94744.28;4990784;28;20212;-68
2022/08/17 01:48:03;;;;;;;6.63;5.90;;;;;;;21.78;nan;94745.50;4990632;28;20210;-69
2022/08/17 01:50:33;;;;;;;5.78;5.35;;;;;;;21.59;nan;94744.41;4990799;28;20658;-68
2022/08/17 01:53:05;;;;;;;7.75;6.30;;;;;;;21.22;nan;94738.00;4992253;28;20210;-69
2022/08/17 01:55:39;;;;;;;6.15;5.60;;;;;;;21.09;nan;94742.47;4987975;28;20212;-69
2022/08/17 01:58:08;;;;;;;7.40;5.88;;;;;;;21.21;nan;94744.94;4991257;28;20353;-70
2022/08/17 02:00:35;;;;;;;6.93;6.10;;;;;;;21.43;nan;94738.03;4989696;28;20207;-70
2022/08/17 02:03:02;;;;;;;6.15;5.55;;;;;;;21.54;nan;94746.53;4990821;28;20220;-70
2022/08/17 02:05:29;;;;;;;7.03;6.32;;;;;;;21.59;nan;94748.75;4992147;28;20231;-70
2022/08/17 02:07:56;;;;;;;8.23;5.78;;;;;;;21.63;nan;94752.72;4991788;28;20653;-69
2022/08/17 02:10:23;;;;;;;7.18;6.38;;;;;;;21.67;nan;94752.38;4989387;28;20223;-69
2022/08/17 02:12:51;;;;;;;7.72;6.50;;;;;;;21.68;nan;94751.41;4992006;28;20196;-69
2022/08/17 02:15:19;;;;;;;7.18;6.47;;;;;;;21.45;nan;94760.22;4991779;28;20234;-69
2022/08/17 02:17:46;;;;;;;7.80;5.93;;;;;;;21.21;nan;94749.28;4990145;28;20270;-69
2022/08/17 02:20:13;;;;;;;6.97;6.35;;;;;;;21.01;nan;94753.44;4989411;28;20693;-69
2022/08/17 02:22:44;;;;;;;8.00;6.75;;;;;;;20.93;nan;94748.88;4991146;28;22081;-69
2022/08/17 02:25:15;;;;;;;6.43;5.57;;;;;;;20.94;nan;94758.25;4991669;28;20255;-70
2022/08/17 02:27:42;;;;;;;5.47;5.05;;;;;;;21.02;nan;94749.91;4990251;28;20210;-69
2022/08/17 02:30:14;;;;;;;8.13;5.93;;;;;;;20.86;nan;94752.88;4990609;28;20337;-69
2022/08/17 02:32:41;;;;;;;6.63;6.03;;;;;;;20.19;nan;94742.59;4989619;28;20195;-69
2022/08/17 02:35:08;;;;;;;7.28;6.80;;;;;;;20.02;nan;94746.47;4989915;28;20239;-69
2022/08/17 02:37:36;;;;;;;6.97;6.38;;;;;;;20.00;nan;94745.75;4988460;28;20212;-70
2022/08/17 02:40:04;;;;;;;7.93;7.03;;;;;;;19.92;nan;94742.91;4987954;28;20650;-69
2022/08/17 02:42:33;;;;;;;7.32;6.65;;;;;;;19.88;nan;94753.56;4991954;28;20211;-70
2022/08/17 02:45:02;;;;;;;9.48;6.70;;;;;;;20.24;nan;94758.53;4991601;28;20199;-68
2022/08/17 02:47:30;;;;;;;9.75;6.63;;;;;;;20.11;nan;94757.00;4993377;28;20212;-70
2022/08/17 02:49:57;;;;;;;17.20;6.68;;;;;;;20.26;nan;94766.16;4993945;28;20844;-68
2022/08/17 02:52:24;;;;;;;6.47;5.88;;;;;;;20.29;nan;94764.16;4992669;28;20203;-68
2022/08/17 02:54:51;;;;;;;6.20;5.70;;;;;;;20.46;nan;94756.94;4994137;28;20207;-69
2022/08/17 02:57:18;;;;;;;9.32;6.10;;;;;;;20.63;nan;94764.19;4993243;28;20629;-69
2022/08/17 02:59:45;;;;;;;7.85;7.15;;;;;;;20.75;nan;94763.25;4993816;28;20282;-69
2022/08/17 03:02:12;;;;;;;7.93;7.20;;;;;;;20.89;nan;94760.38;4994898;28;20208;-70
2022/08/17 03:04:40;;;;;;;7.65;6.68;;;;;;;20.88;nan;94769.06;4995956;28;20215;-69
2022/08/17 03:07:07;;;;;;;7.82;6.88;;;;;;;20.42;nan;94768.41;4992445;28;20740;-70
2022/08/17 03:09:34;;;;;;;7.88;6.88;;;;;;;20.27;nan;94762.66;4994881;28;20805;-70
2022/08/17 03:12:05;;;;;;;7.85;6.65;;;;;;;20.25;nan;94770.50;4994543;28;20289;-70
2022/08/17 03:14:32;;;;;;;7.63;6.82;;;;;;;20.49;nan;94779.91;4994811;28;20677;-70
2022/08/17 03:16:59;;;;;;;13.70;7.18;;;;;;;20.66;nan;94774.28;4992782;28;20207;-69
2022/08/17 03:19:25;;;;;;;7.57;6.32;;;;;;;20.81;nan;94783.41;4994724;28;20604;-68
2022/08/17 03:21:54;;;;;;;7.18;6.07;;;;;;;20.90;nan;94777.53;4996435;28;21640;-68
2022/08/17 03:24:20;;;;;;;10.93;6.53;;;;;;;21.04;nan;94787.56;4994296;28;20226;-70
2022/08/17 03:26:47;;;;;;;11.10;6.15;;;;;;;21.05;nan;94783.22;4994491;28;20203;-70
2022/08/17 03:29:17;;;;;;;7.15;6.45;;;;;;;21.03;nan;94783.34;4994768;28;20242;-70
2022/08/17 03:31:45;;;;;;;7.60;6.40;;;;;;;20.98;nan;94780.34;4994084;28;21708;-70
2022/08/17 03:34:12;;;;;;;6.72;6.13;;;;;;;20.69;nan;94779.19;4996548;28;20204;-69
2022/08/17 03:36:39;;;;;;;9.75;8.40;;;;;;;20.78;nan;94781.09;4994060;28;20200;-70
2022/08/17 03:39:07;;;;;;;7.35;6.45;;;;;;;20.90;nan;94787.84;4996517;28;20343;-70
2022/08/17 03:41:34;;;;;;;7.07;6.40;;;;;;;21.02;nan;94786.06;4994687;28;20211;-69
2022/08/17 03:44:01;;;;;;;8.82;6.20;;;;;;;21.08;nan;94788.16;4994149;28;20227;-69
2022/08/17 03:57:32;;;;;;;7.70;6.78;;;;;;;21.27;nan;94800.50;4995081;28;20213;-70
2022/08/17 03:59:58;;;;;;;7.38;6.40;;;;;;;21.33;nan;94794.81;4993188;28;21768;-69
2022/08/17 04:02:29;;;;;;;7.57;5.90;;;;;;;21.31;nan;94796.69;4996308;28;21640;-68
2022/08/17 04:04:56;;;;;;;14.00;7.30;;;;;;;21.26;nan;94801.44;4991811;28;20732;-68
2022/08/17 04:07:26;;;;;;;8.75;6.50;;;;;;;21.33;nan;94797.41;4996228;28;21701;-68
2022/08/17 04:09:54;;;;;;;9.65;6.85;;;;;;;21.27;nan;94810.84;4994506;28;20208;-67
2022/08/17 04:12:23;;;;;;;8.68;7.28;;;;;;;21.24;nan;94804.13;4994400;28;20247;-69
2022/08/17 04:14:51;;;;;;;9.43;7.97;;;;;;;21.32;nan;94813.84;4992147;28;20763;-69
2022/08/17 04:17:17;;;;;;;8.95;6.72;;;;;;;21.26;nan;94804.84;4994861;28;20712;-69
2022/08/17 04:19:44;;;;;;;14.07;7.45;;;;;;;21.30;nan;94821.72;4992625;28;20750;-69
2022/08/17 04:22:11;;;;;;;30.83;22.58;;;;;;;21.30;nan;94815.72;4995514;28;20202;-69
2022/08/17 04:24:37;;;;;;;20.35;16.92;;;;;;;21.24;nan;94822.22;4991045;28;20669;-69
2022/08/17 04:27:08;;;;;;;14.40;12.13;;;;;;;21.33;nan;94825.81;4993362;28;21698;-68
2022/08/17 04:29:35;;;;;;;22.50;16.52;;;;;;;21.50;nan;94827.09;4991919;28;20238;-68
2022/08/17 04:32:02;;;;;;;30.42;16.38;;;;;;;21.78;nan;94830.84;4996124;28;20286;-69
2022/08/17 04:34:29;;;;;;;18.23;9.73;;;;;;;22.04;nan;94838.13;4992933;28;21750;-69
2022/08/17 04:36:56;;;;;;;14.73;8.63;;;;;;;22.12;nan;94837.50;4992328;28;20196;-69
2022/08/17 04:39:24;;;;;;;12.77;7.97;;;;;;;22.28;nan;94835.28;4992020;28;20677;-70
2022/08/17 04:42:05;;;;;;;14.55;8.57;;;;;;;22.48;nan;94836.25;4993806;28;20211;-69
2022/08/17 04:44:34;;;;;;;8.23;7.40;;;;;;;22.68;nan;94837.13;4991874;28;20227;-70
2022/08/17 04:47:01;;;;;;;12.80;7.68;;;;;;;22.73;nan;94840.16;4992540;28;20511;-67
2022/08/17 04:49:28;;;;;;;14.65;11.02;;;;;;;22.73;nan;94847.94;4993598;28;20291;-68
2022/08/17 04:51:56;;;;;;;38.47;26.90;;;;;;;22.81;nan;94844.72;4992923;28;20234;-68
2022/08/17 04:54:22;;;;;;;17.27;11.90;;;;;;;22.64;nan;94846.13;4993194;28;20739;-68
2022/08/17 04:56:49;;;;;;;10.10;7.80;;;;;;;22.87;nan;94839.81;4991579;28;20203;-68
2022/08/17 04:59:18;;;;;;;22.92;8.63;;;;;;;22.74;nan;94847.00;4991784;28;20743;-68
2022/08/17 05:01:48;;;;;;;11.38;9.02;;;;;;;23.07;nan;94849.31;4993004;28;20280;-68
2022/08/17 05:04:18;;;;;;;15.93;9.95;;;;;;;23.47;nan;94848.44;4992986;28;20242;-68
2022/08/17 05:06:46;;;;;;;19.08;9.73;;;;;;;23.96;nan;94846.72;4992476;28;20248;-68
2022/08/17 05:09:13;;;;;;;10.70;8.80;;;;;;;24.23;nan;94839.03;4990730;28;20329;-70
2022/08/17 05:11:40;;;;;;;17.05;8.18;;;;;;;24.74;nan;94833.47;4991942;28;20231;-68
2022/08/17 05:14:07;;;;;;;8.40;7.65;;;;;;;25.18;nan;94841.50;4992364;28;20258;-68
2022/08/17 05:16:33;;;;;;;9.05;7.88;;;;;;;25.80;nan;94834.66;4990868;28;20250;-69
2022/08/17 05:19:01;;;;;;;11.98;7.07;;;;;;;26.64;nan;94837.56;4990656;28;20203;-69
2022/08/17 05:21:29;;;;;;;9.73;6.72;;;;;;;27.61;nan;94844.19;4992337;28;20633;-68
2022/08/17 05:23:57;;;;;;;8.23;7.15;;;;;;;28.85;nan;94848.28;4992806;28;20288;-68
2022/08/17 05:26:25;;;;;;;11.23;6.25;;;;;;;29.90;nan;94840.91;4990823;28;20211;-68
2022/08/17 05:28:51;;;;;;;10.15;6.30;;;;;;;31.54;nan;94837.31;4989718;28;20638;-69
2022/08/17 05:31:18;;;;;;;20.58;11.80;;;;;;;32.96;nan;94831.09;4994057;28;20253;-69
2022/08/17 05:33:45;;;;;;;23.48;18.80;;;;;;;33.64;nan;94833.84;4991863;28;20857;-69
2022/08/17 05:36:15;;;;;;;13.73;12.43;;;;;;;35.08;nan;94835.75;4992157;28;20211;-69
2022/08/17 05:38:42;;;;;;;24.60;15.60;;;;;;;36.23;nan;94830.53;4992772;28;20210;-71
2022/08/17 05:41:10;;;;;;;7.35;6.57;;;;;;;37.83;nan;94834.84;4991126;28;20340;-69
2022/08/17 05:43:38;;;;;;;15.48;12.80;;;;;;;38.05;nan;94840.44;4992174;28;20204;-69
2022/08/17 05:46:13;;;;;;;9.45;8.05;;;;;;;38.88;nan;94835.03;4992894;28;20219;-70
2022/08/17 05:48:43;;;;;;;10.75;7.22;;;;;;;38.81;nan;94828.25;4990707;28;20447;-70
2022/08/17 05:51:36;;;;;;;7.90;7.10;;;;;;;38.57;nan;94830.91;4991480;28;21707;-70
2022/08/17 05:54:16;;;;;;;10.38;6.72;;;;;;;39.65;nan;94826.84;4990425;28;20301;-69
2022/08/17 05:57:04;;;;;;;11.88;7.35;;;;;;;39.60;nan;94826.72;4991412;28;20203;-69
2022/08/17 05:59:44;;;;;;;8.68;6.80;;;;;;;39.61;nan;94834.47;4990333;28;20285;-68
2022/08/17 06:02:20;;;;;;;9.13;6.65;;;;;;;39.68;nan;94824.50;4993644;28;20219;-71
2022/08/17 06:05:03;;;;;;;10.52;7.20;;;;;;;39.24;nan;94827.88;4991393;28;20238;-70
2022/08/17 06:07:37;;;;;;;9.40;7.13;;;;;;;39.67;nan;94822.91;4989436;28;20219;-68
2022/08/17 06:10:13;;;;;;;14.35;8.30;;;;;;;38.38;nan;94829.31;4991850;28;20203;-70
2022/08/17 06:12:48;;;;;;;8.13;6.80;;;;;;;38.23;nan;94837.75;4993775;28;20327;-70
2022/08/17 06:15:28;;;;;;;15.57;7.75;;;;;;;39.40;nan;94832.44;4990754;28;20215;-69
2022/08/17 06:17:58;;;;;;;9.23;7.47;;;;;;;39.46;nan;94834.19;4994925;28;20685;-70
2022/08/17 06:20:30;;;;;;;8.73;7.82;;;;;;;39.41;nan;94831.41;4994099;28;20239;-69
2022/08/17 06:23:05;;;;;;;13.27;6.88;;;;;;;40.67;nan;94826.75;4995768;28;20295;-69
2022/08/17 06:25:42;;;;;;;10.55;9.45;;;;;;;39.22;nan;94835.25;4994455;28;20228;-70
2022/08/17 06:28:13;;;;;;;12.00;7.78;;;;;;;39.82;nan;94824.25;4995399;28;20210;-70
2022/08/17 06:30:47;;;;;;;10.48;8.45;;;;;;;40.13;nan;94827.22;4993511;28;20218;-70
2022/08/17 06:33:32;;;;;;;11.70;9.10;;;;;;;40.49;nan;94829.69;4994737;28;20213;-69
2022/08/17 06:36:10;;;;;;;16.60;11.52;;;;;;;40.09;nan;94831.38;4991673;28;20603;-69
2022/08/17 06:38:52;;;;;;;9.63;7.35;;;;;;;40.03;nan;94823.59;4993327;28;20772;-69
2022/08/17 06:41:26;;;;;;;12.23;7.50;;;;;;;39.47;nan;94822.50;4994854;28;20215;-70
2022/08/17 06:44:08;;;;;;;10.25;7.45;;;;;;;39.09;nan;94826.50;4997140;28;20284;-70
2022/08/17 06:46:37;;;;;;;9.85;6.65;;;;;;;39.13;nan;94827.63;4993808;28;20265;-70
2022/08/17 06:49:15;;;;;;;9.88;6.70;;;;;;;39.41;nan;94823.41;4993722;28;20208;-70
2022/08/17 06:51:47;;;;;;;11.23;7.68;;;;;;;38.58;nan;94821.91;4995554;28;20199;-70
2022/08/17 06:54:22;;;;;;;7.57;6.88;;;;;;;39.17;nan;94813.88;4994218;28;20211;-70
2022/08/17 06:56:53;;;;;;;9.57;6.85;;;;;;;39.29;nan;94809.38;4995205;28;20240;-70
2022/08/17 06:59:25;;;;;;;7.70;6.95;;;;;;;39.41;nan;94813.59;4992717;28;20299;-71
2022/08/17 07:01:55;;;;;;;12.10;6.68;;;;;;;39.34;nan;94814.78;4992165;28;20762;-70
2022/08/17 07:04:28;;;;;;;9.63;6.10;;;;;;;39.01;nan;94816.25;4993033;28;20227;-71
2022/08/17 07:08:00;;;;;;;11.20;6.18;;;;;;;38.66;nan;94818.88;4992263;28;20732;-71
2022/08/17 07:09:51;;;;;;;8.55;5.55;;;;;;;39.06;nan;94826.16;4989633;28;20315;-71
2022/08/17 07:12:23;;;;;;;9.75;5.70;;;;;;;38.99;nan;94820.94;4993409;28;20397;-68
2022/08/17 07:14:57;;;;;;;6.90;5.50;;;;;;;38.26;nan;94816.06;4996177;28;20200;-71
2022/08/17 07:17:26;;;;;;;10.38;6.35;;;;;;;38.03;nan;94821.28;4994925;28;20750;-70
2022/08/17 07:20:03;;;;;;;10.32;6.93;;;;;;;37.18;nan;94815.22;4992273;28;20204;-71
2022/08/17 07:22:43;;;;;;;13.25;6.13;;;;;;;37.08;nan;94816.56;4993510;28;20213;-70
2022/08/17 07:25:17;;;;;;;14.98;6.78;;;;;;;37.20;nan;94819.28;4993854;28;20321;-70
2022/08/17 07:27:49;;;;;;;16.67;9.70;;;;;;;37.38;nan;94810.50;4992786;28;20243;-70
2022/08/17 07:30:21;;;;;;;20.63;9.57;;;;;;;36.40;nan;94819.22;4992318;28;20211;-70
2022/08/17 07:32:52;;;;;;;11.43;7.18;;;;;;;36.33;nan;94823.75;4995494;28;20313;-70
2022/08/17 07:35:21;;;;;;;11.68;6.13;;;;;;;35.13;nan;94820.09;4994984;28;20219;-71
2022/08/17 07:37:54;;;;;;;9.82;6.22;;;;;;;35.14;nan;94816.41;4993992;28;20588;-71
2022/08/17 07:40:28;;;;;;;17.13;6.13;;;;;;;35.08;nan;94816.44;4992381;28;20207;-72
2022/08/17 07:43:18;;;;;;;18.23;8.50;;;;;;;34.47;nan;94809.63;4992409;28;20226;-70
2022/08/17 07:48:48;;;;;;;13.98;9.18;;;;;;;34.45;nan;94816.94;4994124;28;20751;-70
2022/08/17 07:51:19;;;;;;;16.25;10.23;;;;;;;34.47;nan;94808.81;4994649;28;20204;-68
2022/08/17 07:53:46;;;;;;;13.80;9.40;;;;;;;34.10;nan;94808.41;4996028;28;20222;-68
2022/08/17 07:56:36;;;;;;;9.18;6.65;;;;;;;33.91;nan;94811.81;4993383;28;20658;-69
2022/08/17 07:59:18;;;;;;;7.25;6.50;;;;;;;33.66;nan;94811.53;4993549;28;20385;-70
2022/08/17 08:01:59;;;;;;;10.23;5.60;;;;;;;33.58;nan;94809.09;4994622;28;20219;-70
2022/08/17 08:04:29;;;;;;;8.00;5.80;;;;;;;33.32;nan;94803.75;4991274;28;20708;-70
2022/08/17 08:07:00;;;;;;;9.02;6.85;;;;;;;33.11;nan;94813.34;4992517;28;20309;-71
2022/08/17 08:09:45;;;;;;;9.45;5.93;;;;;;;32.92;nan;94803.53;4992001;28;20657;-70
2022/08/17 08:12:28;;;;;;;9.75;6.07;;;;;;;32.79;nan;94811.34;4994480;28;20293;-70
2022/08/17 08:14:57;;;;;;;8.88;6.03;;;;;;;32.26;nan;94808.34;4993681;28;20206;-69
2022/08/17 08:17:29;;;;;;;5.40;4.90;;;;;;;31.66;nan;94806.97;4993056;28;20216;-69
2022/08/17 08:19:59;;;;;;;5.20;4.80;;;;;;;31.58;nan;94800.97;4992926;28;20231;-68
2022/08/17 08:22:34;;;;;;;4.80;4.50;;;;;;;31.59;nan;94792.91;4991018;28;20269;-69
2022/08/17 08:25:12;;;;;;;5.38;4.80;;;;;;;31.65;nan;94789.56;4992832;28;20234;-70
2022/08/17 08:27:48;;;;;;;7.22;5.15;;;;;;;31.95;nan;94795.50;4993173;28;20207;-68
2022/08/17 08:30:18;;;;;;;7.10;5.45;;;;;;;32.27;nan;94791.56;4991365;28;20874;-71
2022/08/17 08:33:03;;;;;;;6.68;5.60;;;;;;;32.33;nan;94788.16;4990410;28;20602;-71
2022/08/17 08:35:33;;;;;;;7.82;4.45;;;;;;;32.46;nan;94782.97;4990190;28;20803;-72
2022/08/17 08:38:10;;;;;;;8.50;5.15;;;;;;;32.55;nan;94780.22;4987776;28;20219;-71
2022/08/17 08:40:49;;;;;;;5.57;5.15;;;;;;;32.49;nan;94781.78;4990036;28;20286;-69
2022/08/17 08:43:25;;;;;;;4.95;4.35;;;;;;;32.44;nan;94777.09;4994084;28;20208;-69
2022/08/17 08:45:59;;;;;;;5.28;4.85;;;;;;;32.43;nan;94785.19;4994569;28;20797;-70
2022/08/17 08:48:58;;;;;;;6.03;4.68;;;;;;;32.26;nan;94776.78;4989857;28;20704;-72
2022/08/17 08:51:34;;;;;;;5.60;4.55;;;;;;;32.18;nan;94773.44;4994897;28;20204;-69
2022/08/17 08:54:06;;;;;;;5.50;4.13;;;;;;;32.05;nan;94779.41;4991784;28;20211;-71
2022/08/17 08:56:41;;;;;;;4.57;4.28;;;;;;;31.93;nan;94771.22;4994296;28;20214;-70
2022/08/17 08:59:20;;;;;;;8.15;6.05;;;;;;;31.68;nan;94773.41;4993700;28;20726;-70
2022/08/17 09:01:58;;;;;;;26.88;20.65;;;;;;;31.37;nan;94775.50;4991369;28;20689;-69
2022/08/17 09:04:41;;;;;;;9.02;8.18;;;;;;;31.19;nan;94767.22;4991113;28;20636;-70
2022/08/17 09:07:22;;;;;;;14.20;12.80;;;;;;;31.00;nan;94765.94;4991509;28;20692;-70
2022/08/17 09:09:59;;;;;;;7.57;6.75;;;;;;;30.78;nan;94775.56;4991875;28;20216;-70
2022/08/17 09:12:36;;;;;;;5.65;4.57;;;;;;;30.72;nan;94773.66;4989434;28;20555;-69
2022/08/17 09:15:11;;;;;;;10.48;6.75;;;;;;;30.92;nan;94774.75;4992032;28;20200;-68
2022/08/17 09:17:47;;;;;;;4.10;3.70;;;;;;;30.99;nan;94756.44;4989449;28;20306;-71
2022/08/17 09:20:20;;;;;;;41.83;32.13;;;;;;;31.35;nan;94767.00;4993306;28;20211;-70
2022/08/17 09:22:53;;;;;;;21.67;16.60;;;;;;;31.49;nan;94776.63;4987081;28;20208;-70
2022/08/17 09:25:27;;;;;;;38.85;32.63;;;;;;;31.48;nan;94771.56;4992219;28;20314;-71
2022/08/17 09:27:58;;;;;;;24.35;20.35;;;;;;;31.45;nan;94773.56;4992577;28;20709;-71
2022/08/17 09:30:28;;;;;;;9.73;8.02;;;;;;;31.48;nan;94764.50;4990447;28;20369;-70
2022/08/17 09:32:59;;;;;;;10.43;5.50;;;;;;;31.34;nan;94854.66;4991236;28;20210;-70
2022/08/17 09:35:28;;;;;;;7.28;5.97;;;;;;;;;;4990795;28;20245;-71
2022/08/17 09:38:00;;;;;;;6.30;5.55;;;;;;;;;;4992678;28;20203;-70
2022/08/17 09:40:32;;;;;;;12.88;8.60;;;;;;;31.29;nan;94851.75;4988197;28;20207;-70
2022/08/17 09:43:04;;;;;;;26.77;23.00;;;;;;;31.24;nan;94854.94;4988433;28;20257;-73
2022/08/17 09:45:38;;;;;;;28.13;21.70;;;;;;;31.18;nan;94844.38;4987493;28;20285;-72
2022/08/17 09:48:11;;;;;;;49.85;41.97;;;;;;;31.35;nan;94840.53;4991707;28;20269;-69
2022/08/17 09:50:44;;;;;;;30.77;26.83;;;;;;;31.31;nan;94852.38;4995293;28;20852;-70
2022/08/17 09:53:11;;;;;;;13.70;12.30;;;;;;;31.09;nan;94847.03;4993721;28;20218;-69
2022/08/17 09:55:51;;;;;;;7.68;6.70;;;;;;;;;;4996470;28;20571;-71
2022/08/17 09:58:28;;;;;;;11.10;7.93;;;;;;;31.32;nan;94831.22;4995881;28;20794;-68
2022/08/17 10:01:03;;;;;;;14.02;11.30;;;;;;;31.38;nan;94829.66;4995554;28;20203;-69
2022/08/17 10:03:47;;;;;;;6.90;5.78;;;;;;;31.22;nan;94840.34;4996901;28;20257;-70
2022/08/17 10:06:21;;;;;;;6.50;5.10;;;;;;;31.30;nan;94832.38;4994974;28;20227;-69
2022/08/17 10:08:56;;;;;;;6.50;5.38;;;;;;;31.34;nan;94839.72;4997215;28;20213;-70
2022/08/17 10:14:20;;;;;;;9.23;4.60;;;;;;;31.33;nan;94845.16;4994647;28;20203;-70
2022/08/17 10:16:56;;;;;;;5.55;4.32;;;;;;;31.30;nan;94827.13;4996480;28;20304;-69
2022/08/17 10:19:29;;;;;;;5.63;4.10;;;;;;;31.14;nan;94837.84;4996489;28;20308;-69
2022/08/17 10:27:33;;;;;;;4.25;3.85;;;;;;;;;;4996131;28;20264;-68
2022/08/17 10:30:05;;;;;;;4.82;4.20;;;;;;;31.27;nan;94823.06;4995635;28;20234;-70
2022/08/17 10:32:38;;;;;;;4.60;4.20;;;;;;;31.31;nan;94823.50;4997669;28;20207;-69
2022/08/17 10:35:24;;;;;;;4.07;3.78;;;;;;;;;;4995018;28;20199;-70
2022/08/17 10:38:28;;;;;;;4.15;3.83;;;;;;;31.51;nan;94824.53;4987621;28;20211;-69
2022/08/17 10:41:00;;;;;;;11.02;4.45;;;;;;;31.61;nan;94809.31;4995697;28;20210;-69
2022/08/17 10:43:43;;;;;;;4.90;4.60;;;;;;;31.67;nan;94808.59;4996205;28;20204;-69
2022/08/17 10:46:17;;;;;;;4.65;4.20;;;;;;;31.61;nan;94811.94;4993761;28;20341;-68
2022/08/17 10:48:46;;;;;;;4.55;3.88;;;;;;;;;;4995269;28;20285;-69
2022/08/17 10:51:35;;;;;;;4.28;3.47;;;;;;;;;;4995784;28;20211;-68
2022/08/17 10:54:01;;;;;;;5.00;3.92;;;;;;;;;;4995698;28;20277;-69
2022/08/17 10:56:48;;;;;;;5.30;4.90;;;;;;;31.56;nan;94795.91;4994751;28;20673;-68
2022/08/17 10:59:29;;;;;;;6.78;5.78;;;;;;;;;;4996905;28;20196;-69
2022/08/17 11:02:15;;;;;;;7.78;4.43;;;;;;;31.67;nan;94802.53;4991979;28;20672;-69
2022/08/17 11:05:00;;;;;;;5.28;4.75;;;;;;;31.65;nan;94799.25;4991972;28;20357;-68
2022/08/17 11:07:46;;;;;;;6.47;4.97;;;;;;;31.79;nan;94817.59;4992821;28;21188;-69
2022/08/17 11:10:30;;;;;;;7.28;4.45;;;;;;;31.81;nan;94795.56;4989023;28;20219;-69
2022/08/17 11:13:03;;;;;;;6.47;4.20;;;;;;;31.66;nan;94803.50;4990776;28;20293;-69
2022/08/17 11:15:49;;;;;;;6.68;4.20;;;;;;;31.97;nan;94792.69;4994445;28;20269;-69
2022/08/17 11:18:32;;;;;;;6.57;3.67;;;;;;;;;;4992730;28;20216;-68
2022/08/17 11:21:38;;;;;;;6.43;4.47;;;;;;;32.19;nan;94802.16;4992341;28;20207;-69
2022/08/17 11:24:10;;;;;;;5.45;4.38;;;;;;;;;;4992880;28;20226;-68
2022/08/17 11:26:45;;;;;;;4.65;4.38;;;;;;;31.86;nan;94809.78;4992131;28;20297;-69
2022/08/17 11:29:18;;;;;;;5.78;4.82;;;;;;;;;;4993181;28;20495;-69
2022/08/17 11:31:59;;;;;;;4.15;3.88;;;;;;;31.16;nan;94804.34;4992359;28;20208;-71
2022/08/17 11:34:27;;;;;;;5.78;5.28;;;;;;;31.54;nan;94802.34;4993027;28;20219;-71
2022/08/17 11:37:20;;;;;;;7.38;6.22;;;;;;;31.91;nan;94799.53;4990429;28;20223;-70
2022/08/17 11:40:05;;;;;;;5.90;5.47;;;;;;;32.23;nan;94806.09;4991776;28;20211;-72
2022/08/17 11:42:42;;;;;;;5.82;4.47;;;;;;;;;;4991065;28;21015;-71
2022/08/17 11:45:29;;;;;;;6.80;4.38;;;;;;;31.32;nan;94825.94;4990828;28;20207;-71
2022/08/17 11:54:04;;;;;;;12.02;9.77;;;;;;;31.07;nan;94828.03;4991105;28;20235;-72
2022/08/17 11:56:42;;;;;;;27.33;21.13;;;;;;;30.90;nan;94838.91;4990525;28;20199;-71
2022/08/17 11:59:46;;;;;;;32.88;28.50;;;;;;;30.46;nan;94834.41;4991040;28;20795;-71
2022/08/17 12:02:34;;;;;;;36.15;28.67;;;;;;;30.57;nan;94841.88;4989908;28;21359;-70
2022/08/17 12:05:12;;;;;;;18.00;16.23;;;;;;;30.37;nan;94846.78;4991681;28;20699;-71
2022/08/17 12:07:43;;;;;;;24.85;22.00;;;;;;;30.34;nan;94847.13;4991068;28;20277;-72
2022/08/17 12:10:14;;;;;;;21.13;18.35;;;;;;;30.69;nan;94844.84;4991575;28;20946;-71
2022/08/17 12:12:43;;;;;;;12.68;11.50;;;;;;;30.89;nan;94845.97;4990893;28;20753;-71
2022/08/17 12:15:17;;;;;;;6.22;5.65;;;;;;;30.76;nan;94843.97;4992328;28;20243;-72
2022/08/17 12:17:52;;;;;;;11.45;10.50;;;;;;;30.66;nan;94840.00;4990496;28;20208;-69
2022/08/17 12:20:22;;;;;;;15.27;13.75;;;;;;;30.49;nan;94844.53;4991887;28;20204;-67
2022/08/17 12:22:59;;;;;;;12.70;11.65;;;;;;;30.17;nan;94843.03;4989343;28;20208;-68
2022/08/17 12:25:31;;;;;;;10.50;9.73;;;;;;;;;;4992575;28;20303;-69
2022/08/17 12:27:58;;;;;;;11.02;10.15;;;;;;;30.93;nan;94830.69;4990512;28;20234;-70
2022/08/17 12:30:25;;;;;;;4.75;4.45;;;;;;;31.10;nan;94827.69;4989886;28;20866;-70
2022/08/17 12:32:53;;;;;;;5.95;5.65;;;;;;;31.39;nan;94820.78;4989525;28;20223;-69
2022/08/17 12:35:26;;;;;;;8.60;7.90;;;;;;;31.72;nan;94827.22;4990359;28;20208;-71
2022/08/17 12:37:54;;;;;;;9.50;8.68;;;;;;;31.86;nan;94812.41;4991617;28;20203;-69
2022/08/17 12:40:25;;;;;;;12.13;10.98;;;;;;;31.51;nan;94819.28;4989759;28;21673;-69
2022/08/17 12:43:00;;;;;;;13.48;12.18;;;;;;;30.98;nan;94808.13;4990953;28;20205;-68
2022/08/17 12:45:30;;;;;;;39.58;27.70;;;;;;;31.12;nan;94819.66;4989784;28;20206;-70
2022/08/17 12:48:01;;;;;;;20.73;18.63;;;;;;;;;;4993059;28;20220;-69